• Join FlightAware (Why Join?)
  • Login
  • US Flag 
 
05:21AM EST


 

Airport Tracker/Info


-or-


 

Live Flight TrackerFlight Track Log ✈ CRL925 ✈ 03-May-2013 ✈ TFFF / FDF - LFPO / ORY

Flight Track Log - Related Links

Times and Time Zones

All times are in EDT time to prevent confusion due to time zone crossing. See the CRL925 flight status page for this flight to view local times or setup timezone preferences in your user account.

Time Position Orientation Groundspeed Altitude Reporting Facility
EDT Latitude Longitude Course Direction KTS MPH feet Rate Location/Type
07:55PM 14.6090 -61.0000 39° Northeast 291 335 7,600  Level FlightAware
07:55PM 14.6380 -60.9750 40° Northeast 300 345 8,600 2,100 Climbing FlightAware
07:56PM 14.6700 -60.9470 40° Northeast 305 351 9,700 1,800 Climbing FlightAware
07:56PM 14.7130 -60.9100 40° Northeast 330 380 10,700 1,020 Climbing FlightAware
07:57PM 14.7850 -60.8480 40° Northeast 386 444 11,400 1,380 Climbing FlightAware
07:58PM 14.8500 -60.7910 40° Northeast 399 459 13,000 2,400 Climbing FlightAware
07:59PM 14.9040 -60.7450 39° Northeast 395 455 14,800 2,280 Climbing FlightAware
07:59PM 14.9560 -60.6990 41° Northeast 404 465 15,900 1,920 Climbing FlightAware
08:00PM 15.0260 -60.6380 40° Northeast 408 470 17,600 1,860 Climbing FlightAware
08:01PM 15.0780 -60.5940 39° Northeast 415 478 18,600 1,560 Climbing FlightAware
08:01PM 15.1420 -60.5380 40° Northeast 425 489 19,600 1,560 Climbing FlightAware
08:02PM 15.2130 -60.4760 40° Northeast 430 495 21,000 1,500 Climbing FlightAware
08:03PM 15.3000 -60.4000 40° Northeast 443 510 22,300 1,320 Climbing FlightAware
08:04PM 15.3720 -60.3380 40° Northeast 454 522 23,200 1,200 Climbing FlightAware
08:04PM 15.4270 -60.2900 40° Northeast 459 528 24,000 1,320 Climbing FlightAware
08:05PM 15.5020 -60.2240 40° Northeast 463 533 25,000 1,080 Climbing FlightAware
08:06PM 15.5690 -60.1650 40° Northeast 475 547 25,600 660 Climbing FlightAware
08:06PM 15.6410 -60.1020 40° Northeast 491 565 26,000 720 Climbing FlightAware
08:07PM 15.7180 -60.0340 40° Northeast 498 573 26,700 840 Climbing FlightAware
08:08PM 15.7750 -59.9850 40° Northeast 505 581 27,100 780 Climbing FlightAware
08:09PM 15.8630 -59.9070 40° Northeast 512 589 27,800 900 Climbing FlightAware
08:09PM 15.9390 -59.8400 40° Northeast 512 589 28,600 900 Climbing FlightAware
08:10PM 16.0000 -59.7870 40° Northeast 517 595 29,000 780 Climbing FlightAware
08:11PM 16.0760 -59.7200 40° Northeast 518 596 29,700 960 Climbing FlightAware
08:11PM 16.1560 -59.6500 40° Northeast 517 595 30,500 960 Climbing FlightAware
08:12PM 16.2260 -59.5880 40° Northeast 520 598 31,000 900 Climbing FlightAware
08:13PM 16.3160 -59.5070 41° Northeast 519 597 31,800 960 Climbing FlightAware
08:13PM 16.3830 -59.4480 40° Northeast 517 595 32,500 1,020 Climbing FlightAware
08:14PM 16.4730 -59.3680 40° Northeast 514 592 33,300 960 Climbing FlightAware
08:15PM 16.5410 -59.3090 40° Northeast 512 589 33,900 900 Climbing FlightAware
08:16PM 16.6070 -59.2500 41° Northeast 512 589 34,500 840 Climbing FlightAware
08:16PM 16.6730 -59.1920 40° Northeast 511 588 35,000 300 Climbing FlightAware
08:17PM 16.7600 -59.1130 41° Northeast 514 592 35,000  Level FlightAware
08:18PM 16.8250 -59.0560 40° Northeast 513 590 35,000  Level FlightAware
08:18PM 16.9140 -58.9770 40° Northeast 512 589 35,000  Level FlightAware
08:19PM 16.9790 -58.9180 41° Northeast 513 590 35,000  Level FlightAware
08:20PM 17.1130 -58.7990 40° Northeast 513 590 35,000  Level FlightAware
08:21PM 17.1750 -58.7440 40° Northeast 514 592 35,000  Level FlightAware
08:22PM 17.2360 -58.6900 40° Northeast 514 592 35,000  Level FlightAware
08:22PM 17.2980 -58.6350 40° Northeast 514 592 35,000  Level FlightAware
08:23PM 17.3600 -58.5810 40° Northeast 514 592 35,000  Level FlightAware
08:24PM 17.4220 -58.5270 40° Northeast 514 592 35,000  Level FlightAware
08:24PM 17.5000 -58.4580 40° Northeast 514 592 35,000  Level FlightAware
08:25PM 17.5620 -58.4040 40° Northeast 514 592 35,000  Level FlightAware
08:26PM 17.6240 -58.3490 40° Northeast 514 592 35,000  Level FlightAware
08:26PM 17.6860 -58.2950 40° Northeast 514 592 35,000  Level FlightAware
08:27PM 17.7470 -58.2400 41° Northeast 514 592 35,000  Level FlightAware
08:28PM 18.0000 -58.0000 24° Northeast 498 573 35,000  Level New York Oceanic (ODAPS)
08:28PM 17.8250 -58.1720 40° Northeast 514 592 35,000  Level FlightAware
08:29PM 17.8870 -58.1180 40° Northeast 514 592 35,000  Level FlightAware
08:29PM 18.1167 -57.9500 25° Northeast 498 573 35,000  Level New York Oceanic (ODAPS)
08:29PM 17.9490 -58.0630 40° Northeast 514 592 35,000  Level FlightAware
08:30PM 18.0110 -58.0080 40° Northeast 514 592 35,000  Level FlightAware
08:33PM 18.3321 -57.8494 25° Northeast  Level FlightAware Approximate
08:33PM 18.6333 -57.7000 25° Northeast 494 568 35,000  Level New York Oceanic (ODAPS)
08:34PM 18.7527 -57.6376 25° Northeast 498 573 35,000  Level FlightAware Transoceanic
08:35PM 18.8704 -57.5858 25° Northeast 498 573 35,000  Level FlightAware Transoceanic
08:36PM 18.9960 -57.5248 25° Northeast 498 573 35,000  Level FlightAware Transoceanic
08:37PM 19.1215 -57.4637 25° Northeast 498 573 35,000  Level FlightAware Transoceanic
08:38PM 19.2470 -57.4025 25° Northeast 498 573 35,000  Level FlightAware Transoceanic
08:39PM 19.3846 -57.3346 25° Northeast 494 568 35,000  Level FlightAware Transoceanic
08:40PM 19.5098 -57.2734 25° Northeast 494 568 35,000  Level FlightAware Transoceanic
08:41PM 19.6349 -57.2121 25° Northeast 494 568 35,000  Level FlightAware Transoceanic
08:42PM 19.7600 -57.1507 25° Northeast 494 568 35,000  Level FlightAware Transoceanic
08:43PM 19.8851 -57.0892 25° Northeast 494 568 35,000  Level FlightAware Transoceanic
08:44PM 20.0102 -57.0276 25° Northeast 494 568 35,000  Level FlightAware Transoceanic
08:44PM 19.7000 -57.1833 25° Northeast 497 572 35,000  Level New York Oceanic (ODAPS)
08:45PM 20.1352 -56.9659 25° Northeast 494 568 35,000  Level FlightAware Transoceanic
08:46PM 20.2603 -56.9041 25° Northeast 494 568 35,000  Level FlightAware Transoceanic
08:47PM 20.3853 -56.8422 25° Northeast 494 568 35,000  Level FlightAware Transoceanic
08:48PM 20.5102 -56.7802 25° Northeast 494 568 35,000  Level FlightAware Transoceanic
08:49PM 20.6352 -56.7181 25° Northeast 494 568 35,000 720 Level FlightAware Transoceanic
08:49PM 19.7000 -57.1833 25° Northeast 497 572 36,000  Climbing New York Oceanic (ODAPS)
08:50PM 20.7143 -56.6812 25° Northeast 497 572 35,000 -600 Descending FlightAware Transoceanic
08:51PM 20.8410 -56.6179 25° Northeast 497 572 35,000  Level FlightAware Transoceanic
08:52PM 20.9676 -56.5546 25° Northeast 497 572 35,000  Level FlightAware Transoceanic
08:53PM 21.0943 -56.4911 25° Northeast 497 572 35,000 540 Level FlightAware Transoceanic
08:53PM 21.0667 -56.5000 25° Northeast 475 547 36,000  Climbing New York Oceanic (ODAPS)
08:54PM 21.2209 -56.4276 25° Northeast 497 572 35,000  Descending FlightAware Transoceanic
08:55PM 21.3475 -56.3639 25° Northeast 497 572 36,000 480 Climbing FlightAware Transoceanic
08:56PM 21.4740 -56.3001 25° Northeast 497 572 36,000  Level FlightAware Transoceanic
08:57PM 21.6006 -56.2362 25° Northeast 497 572 36,000  Level FlightAware Transoceanic
08:58PM 21.7271 -56.1722 25° Northeast 497 572 36,000  Level FlightAware Transoceanic
08:59PM 21.8536 -56.1081 25° Northeast 497 572 36,000  Level FlightAware Transoceanic
09:00PM 21.8013 -56.1309 25° Northeast 475 547 36,000  Level FlightAware Transoceanic
09:01PM 21.9236 -56.0690 25° Northeast 475 547 36,000  Level FlightAware Transoceanic
09:02PM 22.0460 -56.0070 25° Northeast 475 547 36,000  Level FlightAware Transoceanic
09:03PM 22.1683 -55.9449 25° Northeast 475 547 36,000  Level FlightAware Transoceanic
09:04PM 22.2906 -55.8827 25° Northeast 475 547 36,000  Level FlightAware Transoceanic
09:05PM 22.4128 -55.8204 25° Northeast 475 547 36,000  Level FlightAware Transoceanic
09:06PM 22.5351 -55.7580 25° Northeast 475 547 36,000  Level FlightAware Transoceanic
09:07PM 22.6573 -55.6954 25° Northeast 475 547 36,000  Level FlightAware Transoceanic
09:08PM 22.7795 -55.6328 25° Northeast 475 547 36,000  Level FlightAware Transoceanic
09:09PM 22.9016 -55.5700 25° Northeast 475 547 36,000  Level FlightAware Transoceanic
09:10PM 23.0238 -55.5071 25° Northeast 475 547 36,000  Level FlightAware Transoceanic
09:11PM 23.1459 -55.4442 25° Northeast 475 547 36,000  Level FlightAware Transoceanic
09:12PM 23.2680 -55.3811 25° Northeast 475 547 36,000  Level FlightAware Transoceanic
09:13PM 23.3901 -55.3178 25° Northeast 475 547 36,000  Level FlightAware Transoceanic
09:14PM 23.5121 -55.2545 25° Northeast 475 547 36,000  Level FlightAware Transoceanic
09:14PM 23.5500 -55.2333 25° Northeast 497 572 36,000  Level New York Oceanic (ODAPS)
09:15PM 23.6341 -55.1911 25° Northeast 475 547 36,000  Level FlightAware Transoceanic
09:16PM 23.7561 -55.1275 26° Northeast 475 547 36,000  Level FlightAware Transoceanic
09:17PM 23.8781 -55.0638 26° Northeast 475 547 36,000  Level FlightAware Transoceanic
09:17PM 24.0000 -55.0000 41° Northeast 527 606 36,000  Level New York Oceanic (ODAPS)
09:18PM 24.0000 -55.0000 41° Northeast 475 547 36,000  Level FlightAware Transoceanic
09:19PM 24.1081 -54.8980 41° Northeast 475 547 36,000  Level FlightAware Transoceanic
09:20PM 24.3312 -54.6867 41° Northeast 497 572 36,000  Level FlightAware Transoceanic
09:21PM 24.4414 -54.5819 41° Northeast 497 572 36,000  Level FlightAware Transoceanic
09:22PM 24.5516 -54.4769 41° Northeast 497 572 36,000  Level FlightAware Transoceanic
09:23PM 24.6617 -54.3717 41° Northeast 527 606 36,000  Level FlightAware Transoceanic
09:24PM 24.7717 -54.2664 41° Northeast 527 606 36,000  Level FlightAware Transoceanic
09:25PM 24.8817 -54.1608 41° Northeast 527 606 36,000  Level FlightAware Transoceanic
09:26PM 24.9916 -54.0551 41° Northeast 527 606 36,000  Level FlightAware Transoceanic
09:27PM 25.1014 -53.9492 41° Northeast 527 606 36,000  Level FlightAware Transoceanic
09:28PM 25.2111 -53.8431 41° Northeast 527 606 36,000  Level FlightAware Transoceanic
09:29PM 25.3207 -53.7368 41° Northeast 527 606 36,000  Level FlightAware Transoceanic
09:30PM 25.4303 -53.6303 41° Northeast 527 606 36,000  Level FlightAware Transoceanic
09:31PM 25.5398 -53.5236 41° Northeast 527 606 36,000  Level FlightAware Transoceanic
09:32PM 25.6493 -53.4167 41° Northeast 527 606 36,000  Level FlightAware Transoceanic
09:33PM 25.7586 -53.3096 41° Northeast 527 606 36,000  Level FlightAware Transoceanic
09:34PM 25.8679 -53.2023 41° Northeast 527 606 36,000  Level FlightAware Transoceanic
09:34PM 25.8333 -53.2333 41° Northeast 518 596 36,000  Level New York Oceanic (ODAPS)
09:35PM 25.9771 -53.0948 42° Northeast 527 606 36,000  Level FlightAware Transoceanic
09:36PM 26.0861 -52.9872 42° Northeast 527 606 36,000  Level FlightAware Transoceanic
09:37PM 26.1952 -52.8793 42° Northeast 527 606 36,000  Level FlightAware Transoceanic
09:38PM 26.3041 -52.7712 42° Northeast 527 606 36,000  Level FlightAware Transoceanic
09:39PM 26.4130 -52.6629 42° Northeast 527 606 36,000  Level FlightAware Transoceanic
09:40PM 26.4725 -52.6013 42° Northeast 518 596 36,000  Level FlightAware Transoceanic
09:41PM 26.5788 -52.4952 42° Northeast 518 596 36,000  Level FlightAware Transoceanic
09:42PM 26.6850 -52.3890 42° Northeast 518 596 36,000  Level FlightAware Transoceanic
09:43PM 26.7911 -52.2826 42° Northeast 518 596 36,000  Level FlightAware Transoceanic
09:44PM 26.8971 -52.1760 42° Northeast 518 596 36,000  Level FlightAware Transoceanic
09:45PM 27.0030 -52.0691 42° Northeast 518 596 36,000  Level FlightAware Transoceanic
09:46PM 27.1089 -51.9621 42° Northeast 518 596 36,000  Level FlightAware Transoceanic
09:47PM 27.2147 -51.8549 42° Northeast 518 596 36,000  Level FlightAware Transoceanic
09:48PM 27.3204 -51.7475 42° Northeast 518 596 36,000  Level FlightAware Transoceanic
09:49PM 27.4260 -51.6399 42° Northeast 518 596 36,000  Level FlightAware Transoceanic
09:50PM 27.5315 -51.5320 42° Northeast 518 596 36,000  Level FlightAware Transoceanic
09:51PM 27.6370 -51.4240 42° Northeast 518 596 36,000  Level FlightAware Transoceanic
09:52PM 27.7423 -51.3157 42° Northeast 518 596 36,000  Level FlightAware Transoceanic
09:53PM 27.8476 -51.2073 42° Northeast 518 596 36,000  Level FlightAware Transoceanic
09:54PM 27.9528 -51.0986 42° Northeast 518 596 36,000  Level FlightAware Transoceanic
09:54PM 28.0333 -51.0167 43° Northeast 525 604 36,000  Level New York Oceanic (ODAPS)
09:55PM 28.0579 -50.9897 42° Northeast 518 596 36,000  Level FlightAware Transoceanic
09:56PM 28.1630 -50.8806 43° Northeast 518 596 36,000  Level FlightAware Transoceanic
09:57PM 28.2679 -50.7713 43° Northeast 518 596 36,000  Level FlightAware Transoceanic
09:58PM 28.3727 -50.6618 43° Northeast 518 596 36,000  Level FlightAware Transoceanic
09:59PM 28.4775 -50.5520 43° Northeast 518 596 36,000  Level FlightAware Transoceanic
10:00PM 28.6786 -50.3410 43° Northeast 525 604 36,000  Level FlightAware Transoceanic
10:01PM 28.7858 -50.2275 43° Northeast 525 604 36,000  Level FlightAware Transoceanic
10:02PM 28.8930 -50.1139 43° Northeast 525 604 36,000  Level FlightAware Transoceanic
10:03PM 29.0000 -50.0000 39° Northeast 525 604 36,000  Level FlightAware Transoceanic
10:03PM 29.0000 -50.0000 39° Northeast 528 608 36,000  Level New York Oceanic (ODAPS)
10:04PM 29.1131 -49.8945 39° Northeast 525 604 36,000  Level FlightAware Transoceanic
10:05PM 29.2262 -49.7887 39° Northeast 525 604 36,000  Level FlightAware Transoceanic
10:06PM 29.3391 -49.6827 39° Northeast 525 604 36,000  Level FlightAware Transoceanic
10:07PM 29.4520 -49.5765 39° Northeast 525 604 36,000  Level FlightAware Transoceanic
10:08PM 29.5648 -49.4700 39° Northeast 525 604 36,000  Level FlightAware Transoceanic
10:09PM 29.6775 -49.3633 39° Northeast 528 608 36,000  Level FlightAware Transoceanic
10:10PM 29.7901 -49.2563 40° Northeast 528 608 36,000  Level FlightAware Transoceanic
10:11PM 29.9026 -49.1492 40° Northeast 528 608 36,000  Level FlightAware Transoceanic
10:12PM 30.0151 -49.0417 40° Northeast 528 608 36,000  Level FlightAware Transoceanic
10:13PM 30.1274 -48.9341 40° Northeast 528 608 36,000  Level FlightAware Transoceanic
10:14PM 30.2397 -48.8261 40° Northeast 528 608 36,000  Level FlightAware Transoceanic
10:14PM 30.3000 -48.7667 40° Northeast 529 609 36,000  Level New York Oceanic (ODAPS)
10:15PM 30.3519 -48.7180 40° Northeast 528 608 36,000  Level FlightAware Transoceanic
10:16PM 30.4640 -48.6095 40° Northeast 528 608 36,000  Level FlightAware Transoceanic
10:17PM 30.5760 -48.5009 40° Northeast 528 608 36,000  Level FlightAware Transoceanic
10:18PM 30.6879 -48.3920 40° Northeast 528 608 36,000  Level FlightAware Transoceanic
10:19PM 30.7997 -48.2828 40° Northeast 528 608 36,000  Level FlightAware Transoceanic
10:20PM 30.9114 -48.1734 40° Northeast 528 608 36,000  Level FlightAware Transoceanic
10:21PM 30.9808 -48.1041 40° Northeast 529 609 36,000  Level FlightAware Transoceanic
10:22PM 31.0940 -47.9928 40° Northeast 529 609 36,000  Level FlightAware Transoceanic
10:23PM 31.2070 -47.8812 40° Northeast 529 609 36,000  Level FlightAware Transoceanic
10:24PM 31.3200 -47.7693 40° Northeast 529 609 36,000  Level FlightAware Transoceanic
10:25PM 31.4328 -47.6572 40° Northeast 529 609 36,000  Level FlightAware Transoceanic
10:26PM 31.5456 -47.5447 40° Northeast 529 609 36,000  Level FlightAware Transoceanic
10:27PM 31.6582 -47.4321 40° Northeast 529 609 36,000  Level FlightAware Transoceanic
10:28PM 31.7708 -47.3191 41° Northeast 529 609 36,000  Level FlightAware Transoceanic
10:29PM 31.8832 -47.2059 41° Northeast 529 609 36,000  Level FlightAware Transoceanic
10:30PM 31.9956 -47.0924 41° Northeast 529 609 36,000  Level FlightAware Transoceanic
10:31PM 32.1078 -46.9786 41° Northeast 529 609 36,000  Level FlightAware Transoceanic
10:32PM 32.2200 -46.8645 41° Northeast 529 609 36,000  Level FlightAware Transoceanic
10:33PM 32.3321 -46.7502 41° Northeast 529 609 36,000  Level FlightAware Transoceanic
10:34PM 32.4440 -46.6355 41° Northeast 529 609 36,000  Level FlightAware Transoceanic
10:35PM 32.5559 -46.5206 41° Northeast 529 609 36,000  Level FlightAware Transoceanic
10:35PM 32.6000 -46.4667 41° Northeast 533 613 36,000  Level New York Oceanic (ODAPS)
10:36PM 32.6676 -46.4054 41° Northeast 529 609 36,000  Level FlightAware Transoceanic
10:37PM 32.7792 -46.2899 41° Northeast 529 609 36,000  Level FlightAware Transoceanic
10:38PM 32.8907 -46.1741 41° Northeast 529 609 36,000  Level FlightAware Transoceanic
10:39PM 33.0022 -46.0581 41° Northeast 529 609 36,000  Level FlightAware Transoceanic
10:40PM 33.1135 -45.9417 41° Northeast 529 609 36,000  Level FlightAware Transoceanic
10:41PM 33.3022 -45.7392 41° Northeast 533 613 36,000  Level FlightAware Transoceanic
10:42PM 33.4188 -45.6169 41° Northeast 533 613 36,000  Level FlightAware Transoceanic
10:43PM 33.5353 -45.4941 41° Northeast 533 613 36,000  Level FlightAware Transoceanic
10:44PM 33.6516 -45.3711 41° Northeast 533 613 36,000  Level FlightAware Transoceanic
10:45PM 33.7679 -45.2477 41° Northeast 533 613 36,000  Level FlightAware Transoceanic
10:46PM 33.8840 -45.1240 42° Northeast 533 613 36,000  Level FlightAware Transoceanic
10:47PM 34.0000 -45.0000 44° Northeast 533 613 36,000  Level FlightAware Transoceanic
10:47PM 34.0000 -45.0000 44° Northeast 516 594 36,000  Level New York Oceanic (ODAPS)
10:48PM 34.1024 -44.8810 44° Northeast 533 613 36,000  Level FlightAware Transoceanic
10:49PM 34.2048 -44.7617 44° Northeast 533 613 36,000  Level FlightAware Transoceanic
10:50PM 34.3069 -44.6421 44° Northeast 533 613 36,000  Level FlightAware Transoceanic
10:51PM 34.4090 -44.5223 44° Northeast 533 613 36,000  Level FlightAware Transoceanic
10:52PM 34.5110 -44.4021 44° Northeast 533 613 36,000  Level FlightAware Transoceanic
10:53PM 34.6129 -44.2816 44° Northeast 516 594 36,000  Level FlightAware Transoceanic
10:54PM 34.7146 -44.1609 44° Northeast 516 594 36,000  Level FlightAware Transoceanic
10:55PM 34.8162 -44.0398 44° Northeast 516 594 36,000  Level FlightAware Transoceanic
10:55PM 34.8333 -44.0333 45° Northeast 509 586 36,000  Level New York Oceanic (ODAPS)
10:56PM 34.9177 -43.9185 44° Northeast 516 594 36,000  Level FlightAware Transoceanic
10:57PM 35.0191 -43.7968 45° Northeast 516 594 36,000  Level FlightAware Transoceanic
10:58PM 35.1203 -43.6749 45° Northeast 516 594 36,000  Level FlightAware Transoceanic
10:59PM 35.2214 -43.5526 45° Northeast 516 594 36,000  Level FlightAware Transoceanic
11:00PM 35.3224 -43.4301 45° Northeast 516 594 36,000  Level FlightAware Transoceanic
11:01PM 35.4372 -43.3018 45° Northeast 509 586 36,000  Level FlightAware Transoceanic
11:02PM 35.5374 -43.1788 45° Northeast 509 586 36,000  Level FlightAware Transoceanic
11:03PM 35.6375 -43.0555 45° Northeast 509 586 36,000  Level FlightAware Transoceanic
11:04PM 35.7375 -42.9319 45° Northeast 509 586 36,000  Level FlightAware Transoceanic
11:05PM 35.8373 -42.8079 45° Northeast 509 586 36,000  Level FlightAware Transoceanic
11:06PM 35.9370 -42.6837 45° Northeast 509 586 36,000  Level FlightAware Transoceanic
11:07PM 36.0366 -42.5592 45° Northeast 509 586 36,000  Level FlightAware Transoceanic
11:08PM 36.1361 -42.4343 45° Northeast 509 586 36,000  Level FlightAware Transoceanic
11:09PM 36.2354 -42.3091 46° Northeast 509 586 36,000  Level FlightAware Transoceanic
11:10PM 36.3346 -42.1836 46° Northeast 509 586 36,000  Level FlightAware Transoceanic
11:11PM 36.4336 -42.0578 46° Northeast 509 586 36,000  Level FlightAware Transoceanic
11:12PM 36.5326 -41.9317 46° Northeast 509 586 36,000  Level FlightAware Transoceanic
11:13PM 36.6313 -41.8052 46° Northeast 509 586 36,000  Level FlightAware Transoceanic
11:14PM 36.7300 -41.6784 46° Northeast 509 586 36,000  Level FlightAware Transoceanic
11:15PM 36.8285 -41.5513 46° Northeast 509 586 36,000  Level FlightAware Transoceanic
11:15PM 36.8667 -41.5000 46° Northeast 498 573 36,000  Level New York Oceanic (ODAPS)
11:16PM 36.9269 -41.4239 46° Northeast 509 586 36,000  Level FlightAware Transoceanic
11:17PM 37.0252 -41.2961 46° Northeast 509 586 36,000  Level FlightAware Transoceanic
11:18PM 37.1233 -41.1680 46° Northeast 509 586 36,000  Level FlightAware Transoceanic
11:19PM 37.2213 -41.0396 46° Northeast 509 586 36,000  Level FlightAware Transoceanic
11:20PM 37.3191 -40.9108 46° Northeast 509 586 36,000  Level FlightAware Transoceanic
11:21PM 37.4168 -40.7817 46° Northeast 509 586 36,000  Level FlightAware Transoceanic
11:22PM 37.5301 -40.6305 46° Northeast 498 573 36,000  Level FlightAware Transoceanic
11:23PM 37.6243 -40.5051 47° Northeast 498 573 36,000  Level FlightAware Transoceanic
11:24PM 37.7184 -40.3793 47° Northeast 498 573 36,000  Level FlightAware Transoceanic
11:25PM 37.8124 -40.2532 47° Northeast 498 573 36,000  Level FlightAware Transoceanic
11:26PM 37.9063 -40.1268 47° Northeast 498 573 36,000  Level FlightAware Transoceanic
11:27PM 38.0000 -40.0000 66° East 498 573 36,000  Level FlightAware Transoceanic
11:28PM 38.0568 -39.8405 66° East 498 573 36,000  Level FlightAware Transoceanic
11:29PM 38.1134 -39.6808 66° East 498 573 36,000  Level FlightAware Transoceanic
11:30PM 38.1698 -39.5208 66° East 498 573 36,000  Level FlightAware Transoceanic
11:31PM 38.2259 -39.3605 66° East 498 573 36,000  Level FlightAware Transoceanic
11:32PM 38.2819 -39.2001 66° East 498 573 36,000  Level FlightAware Transoceanic
11:33PM 38.3376 -39.0393 66° East 498 573 36,000  Level FlightAware Transoceanic
11:34PM 38.3931 -38.8784 66° East 498 573 36,000  Level FlightAware Transoceanic
11:35PM 38.4484 -38.7172 66° East 498 573 36,000  Level FlightAware Transoceanic
11:36PM 38.5034 -38.5557 67° East 498 573 36,000  Level FlightAware Transoceanic
11:37PM 38.5583 -38.3940 67° East 498 573 36,000  Level FlightAware Transoceanic
11:38PM 38.6129 -38.2320 67° East 498 573 36,000  Level FlightAware Transoceanic
11:39PM 38.6673 -38.0698 67° East 498 573 36,000  Level FlightAware Transoceanic
11:40PM 38.7215 -37.9073 67° East 498 573 36,000  Level FlightAware Transoceanic
11:41PM 38.7754 -37.7447 67° East 498 573 36,000  Level FlightAware Transoceanic
11:42PM 38.8291 -37.5817 67° East 498 573 36,000  Level FlightAware Transoceanic
11:43PM 38.8826 -37.4185 67° East 498 573 36,000  Level FlightAware Transoceanic
11:44PM 38.9358 -37.2551 67° East 498 573 36,000  Level FlightAware Transoceanic
11:45PM 38.9889 -37.0914 67° East 498 573 36,000  Level FlightAware Transoceanic
11:46PM 39.0417 -36.9275 68° East 498 573 36,000  Level FlightAware Transoceanic
11:47PM 39.0943 -36.7633 68° East 498 573 36,000  Level FlightAware Transoceanic
11:48PM 39.1466 -36.5989 68° East 498 573 36,000  Level FlightAware Transoceanic
11:49PM 39.1987 -36.4342 68° East 498 573 36,000  Level FlightAware Transoceanic
11:50PM 39.2506 -36.2693 68° East 498 573 36,000  Level FlightAware Transoceanic
11:51PM 39.3022 -36.1042 68° East 498 573 36,000  Level FlightAware Transoceanic
11:52PM 39.3537 -35.9388 68° East 498 573 36,000  Level FlightAware Transoceanic
11:53PM 39.4049 -35.7732 68° East 498 573 36,000  Level FlightAware Transoceanic
11:54PM 39.4558 -35.6073 68° East 498 573 36,000  Level FlightAware Transoceanic
11:55PM 39.5065 -35.4412 68° East 498 573 36,000  Level FlightAware Transoceanic
11:56PM 39.5570 -35.2748 69° East 498 573 36,000  Level FlightAware Transoceanic
11:57PM 39.6072 -35.1082 69° East 498 573 36,000  Level FlightAware Transoceanic
11:58PM 39.6572 -34.9414 69° East 498 573 36,000  Level FlightAware Transoceanic
11:59PM 39.7070 -34.7743 69° East 498 573 36,000  Level FlightAware Transoceanic
12:00AM 39.7565 -34.6069 69° East 498 573 36,000  Level FlightAware Transoceanic
12:01AM 39.8058 -34.4394 69° East 498 573 36,000  Level FlightAware Transoceanic
12:02AM 39.8548 -34.2716 69° East 498 573 36,000  Level FlightAware Transoceanic
12:03AM 39.9036 -34.1035 69° East 498 573 36,000  Level FlightAware Transoceanic
12:04AM 39.9521 -33.9353 69° East 498 573 36,000  Level FlightAware Transoceanic
12:05AM 40.0004 -33.7667 70° East 498 573 36,000  Level FlightAware Transoceanic
12:06AM 40.0485 -33.5980 70° East 498 573 36,000  Level FlightAware Transoceanic
12:07AM 40.0963 -33.4290 70° East 498 573 36,000  Level FlightAware Transoceanic
12:08AM 40.1439 -33.2598 70° East 498 573 36,000  Level FlightAware Transoceanic
12:09AM 40.1912 -33.0903 70° East 498 573 36,000  Level FlightAware Transoceanic
12:10AM 40.2383 -32.9206 70° East 498 573 36,000  Level FlightAware Transoceanic
12:11AM 40.2851 -32.7506 70° East 498 573 36,000  Level FlightAware Transoceanic
12:12AM 40.3317 -32.5804 70° East 498 573 36,000  Level FlightAware Transoceanic
12:13AM 40.3780 -32.4100 70° East 498 573 36,000  Level FlightAware Transoceanic
12:14AM 40.4241 -32.2394 71° East 498 573 36,000  Level FlightAware Transoceanic
12:15AM 40.4699 -32.0685 71° East 498 573 36,000  Level FlightAware Transoceanic
12:16AM 40.5155 -31.8974 71° East 498 573 36,000  Level FlightAware Transoceanic
12:17AM 40.5608 -31.7261 71° East 498 573 36,000  Level FlightAware Transoceanic
12:18AM 40.6059 -31.5545 71° East 498 573 36,000  Level FlightAware Transoceanic
12:19AM 40.6507 -31.3827 71° East 498 573 36,000  Level FlightAware Transoceanic
12:20AM 40.6953 -31.2106 71° East 498 573 36,000  Level FlightAware Transoceanic
12:21AM 40.7396 -31.0384 71° East 498 573 36,000  Level FlightAware Transoceanic
12:22AM 40.7836 -30.8659 71° East 498 573 36,000  Level FlightAware Transoceanic
12:23AM 40.8274 -30.6932 72° East 498 573 36,000  Level FlightAware Transoceanic
12:24AM 40.8709 -30.5202 72° East 498 573 36,000  Level FlightAware Transoceanic
12:25AM 40.9142 -30.3470 72° East 498 573 36,000  Level FlightAware Transoceanic
12:26AM 40.9572 -30.1736 72° East 498 573 36,000  Level FlightAware Transoceanic
12:27AM 41.0269 -30.0119 60° Northeast  Level Estimated
12:28AM 41.0964 -29.8499 60° Northeast  Level Estimated
12:29AM 41.1656 -29.6875 60° Northeast  Level Estimated
12:30AM 41.2347 -29.5248 61° Northeast  Level Estimated
12:31AM 41.3034 -29.3617 61° Northeast  Level Estimated
12:32AM 41.3720 -29.1983 61° Northeast  Level Estimated
12:32AM 41.0100 -28.8610 61° Northeast 502 578 36,000  Level FlightAware
12:33AM 41.4403 -29.0345 61° Northeast  Level Estimated
12:33AM 41.0150 -28.7250 87° East 502 578 36,000  Level FlightAware
12:34AM 41.0190 -28.5890 88° East 501 577 36,000  Level FlightAware
12:35AM 41.0240 -28.4530 87° East 501 577 36,000  Level FlightAware
12:35AM 41.0270 -28.3420 88° East 497 572 36,000  Level FlightAware
12:36AM 41.0320 -28.1840 88° East 495 570 36,000 120 Level FlightAware
12:37AM 41.0350 -28.0400 88° East 490 564 36,300 240 Climbing FlightAware
12:38AM 41.0380 -27.9140 88° East 490 564 36,400 60 Climbing FlightAware
12:38AM 41.0410 -27.8120 88° East 490 564 36,400  Level FlightAware
12:39AM 41.0440 -27.7100 88° East 490 564 36,400 420 Level FlightAware
12:40AM 41.0470 -27.5300 89° East 499 574 37,000 360 Climbing FlightAware
12:41AM 41.0510 -27.3600 88° East 496 571 37,000  Level FlightAware
12:42AM 41.0540 -27.1890 89° East 496 571 37,000  Level FlightAware
12:42AM 41.0570 -27.0540 88° East 499 574 37,000  Level FlightAware
12:43AM 41.0600 -26.8950 89° East 499 574 37,000  Level FlightAware
12:44AM 41.0620 -26.7070 89° East 495 570 37,000  Level FlightAware
12:45AM 41.0640 -26.5680 89° East 493 567 37,000  Level FlightAware
12:46AM 41.0660 -26.4390 89° East 491 565 37,000  Level FlightAware
12:46AM 41.0690 -26.3260 88° East 491 565 37,000  Level FlightAware
12:47AM 41.0690 -26.1830 90° East 491 565 37,000  Level FlightAware
12:48AM 41.0700 -26.0400 89° East 490 564 37,000  Level FlightAware
12:49AM 41.0710 -25.9210 89° East 490 564 37,000  Level FlightAware
12:49AM 41.0720 -25.8400 89° East 490 564 37,000  Level FlightAware
12:50AM 41.0730 -25.6600 90° East 490 564 37,000  Level FlightAware
12:51AM 41.0740 -25.5370 89° East 488 562 37,000  Level FlightAware
12:51AM 41.0740 -25.4040 90° East 487 560 37,000  Level FlightAware
12:52AM 41.0750 -25.2390 89° East 488 562 37,000  Level FlightAware
12:53AM 41.0760 -25.1600 89° East 488 562 37,000  Level FlightAware
12:54AM 41.0750 -24.9960 90° East 489 563 37,000  Level FlightAware
12:55AM 41.0750 -24.8510 90° East 488 562 37,000  Level FlightAware
12:56AM 41.0740 -24.6740 90° East 486 559 37,000  Level FlightAware
12:56AM 41.0740 -24.5860 90° East 485 558 37,000  Level FlightAware
12:57AM 41.0730 -24.3730 90° East 483 556 37,000  Level FlightAware
12:58AM 41.0720 -24.2780 91° East 485 558 37,000  Level FlightAware
12:59AM 41.0720 -24.1450 90° East 488 562 37,000  Level FlightAware
12:59AM 41.0710 -24.0370 91° East 489 563 37,000  Level FlightAware
01:00AM 41.0690 -23.8320 91° East 488 562 37,000  Level FlightAware
01:01AM 41.0680 -23.7100 91° East 488 562 37,000  Level FlightAware
01:02AM 41.0660 -23.5470 91° East 489 563 37,000  Level FlightAware
01:03AM 41.0640 -23.4030 91° East 488 562 37,000  Level FlightAware
01:03AM 41.0620 -23.2690 91° East 488 562 37,000  Level FlightAware
01:04AM 41.0600 -23.1380 91° East 489 563 37,000  Level FlightAware
01:05AM 41.0570 -22.9590 91° East 490 564 37,000  Level FlightAware
01:06AM 41.0550 -22.8510 91° East 491 565 37,000  Level FlightAware
01:07AM 41.0520 -22.6870 91° East 493 567 37,000  Level FlightAware
01:07AM 41.0490 -22.5650 92° East 493 567 37,000  Level FlightAware
01:08AM 41.0470 -22.4200 91° East 493 567 37,000  Level FlightAware
01:09AM 41.0450 -22.3170 91° East 493 567 37,000  Level FlightAware
01:10AM 41.0440 -22.2140 91° East 493 567 37,000  Level FlightAware
01:10AM 41.0370 -22.0490 93° East 490 564 37,000  Level FlightAware
01:11AM 41.0340 -21.9370 92° East 490 564 37,000  Level FlightAware
01:12AM 41.0290 -21.7380 92° East 484 557 37,000  Level FlightAware
01:13AM 41.0240 -21.5780 92° East 482 555 37,000  Level FlightAware
01:14AM 41.0220 -21.4770 91° East 482 555 37,000  Level FlightAware
01:14AM 41.0160 -21.3260 93° East 37,000  Level FlightAware
01:17AM 41.1829 -20.9806 57° Northeast  Level Estimated
01:18AM 41.2584 -20.8230 57° Northeast  Level Estimated
01:19AM 41.3337 -20.6650 58° Northeast  Level Estimated
01:20AM 41.4087 -20.5067 58° Northeast  Level Estimated
01:21AM 41.4836 -20.3480 58° Northeast  Level Estimated
01:22AM 41.5583 -20.1889 58° Northeast  Level Estimated
01:23AM 41.6327 -20.0295 58° Northeast  Level Estimated
01:24AM 41.7069 -19.8697 58° Northeast  Level Estimated
01:25AM 41.7808 -19.7095 58° Northeast  Level Estimated
01:26AM 41.8546 -19.5490 58° Northeast  Level Estimated
01:27AM 41.9281 -19.3881 58° Northeast  Level Estimated
01:28AM 42.0014 -19.2268 59° Northeast  Level Estimated
01:29AM 42.0745 -19.0652 59° Northeast  Level Estimated
01:30AM 42.1474 -18.9031 59° Northeast  Level Estimated
01:31AM 42.2200 -18.7407 59° Northeast  Level Estimated
01:32AM 42.2924 -18.5780 59° Northeast  Level Estimated
01:33AM 42.3645 -18.4148 59° Northeast  Level Estimated
01:34AM 42.4365 -18.2513 59° Northeast  Level Estimated
01:35AM 42.5082 -18.0874 59° Northeast  Level Estimated
01:36AM 42.5796 -17.9232 59° Northeast  Level Estimated
01:37AM 42.6508 -17.7585 59° Northeast  Level Estimated
01:38AM 42.7218 -17.5935 60° Northeast  Level Estimated
01:39AM 42.7926 -17.4281 60° Northeast  Level Estimated
01:40AM 42.8631 -17.2624 60° Northeast  Level Estimated
01:41AM 42.9334 -17.0962 60° Northeast  Level Estimated
01:42AM 43.0034 -16.9297 60° Northeast  Level Estimated
01:43AM 43.0732 -16.7628 60° Northeast  Level Estimated
01:44AM 43.1428 -16.5955 60° Northeast  Level Estimated
01:45AM 43.2121 -16.4278 60° Northeast  Level Estimated
01:46AM 43.2811 -16.2598 61° Northeast  Level Estimated
01:47AM 43.3499 -16.0913 61° Northeast  Level Estimated
01:48AM 43.4185 -15.9225 61° Northeast  Level Estimated
01:49AM 43.4868 -15.7533 61° Northeast  Level Estimated
01:50AM 43.5549 -15.5837 61° Northeast  Level Estimated
01:51AM 43.6227 -15.4138 61° Northeast  Level Estimated
01:52AM 43.6903 -15.2434 61° Northeast  Level Estimated
01:53AM 43.7576 -15.0727 61° Northeast  Level Estimated
01:54AM 43.8247 -14.9016 61° Northeast  Level Estimated
01:55AM 43.8915 -14.7301 62° Northeast  Level Estimated
01:56AM 43.9580 -14.5582 62° Northeast  Level Estimated
01:57AM 44.0243 -14.3859 62° Northeast  Level Estimated
01:58AM 44.0903 -14.2133 62° Northeast  Level Estimated
01:59AM 44.1561 -14.0402 62° Northeast  Level Estimated
02:00AM 44.2216 -13.8668 62° Northeast  Level Estimated
02:01AM 44.2868 -13.6930 62° Northeast  Level Estimated
02:02AM 44.3518 -13.5188 62° Northeast  Level Estimated
02:03AM 44.4165 -13.3442 63° Northeast  Level Estimated
02:04AM 44.4809 -13.1693 63° Northeast  Level Estimated
02:05AM 44.5451 -12.9939 63° Northeast  Level Estimated
02:06AM 44.6090 -12.8182 63° Northeast  Level Estimated
02:07AM 44.6727 -12.6421 63° Northeast  Level Estimated
02:08AM 44.7360 -12.4656 63° Northeast  Level Estimated
02:09AM 44.7991 -12.2887 63° Northeast  Level Estimated
02:10AM 44.8619 -12.1114 63° Northeast  Level Estimated
02:11AM 44.9245 -11.9337 64° Northeast  Level Estimated
02:12AM 44.9868 -11.7556 64° Northeast  Level Estimated
02:13AM 45.0488 -11.5772 64° Northeast  Level Estimated
02:14AM 45.1105 -11.3984 64° Northeast  Level Estimated
02:15AM 45.1719 -11.2192 64° Northeast  Level Estimated
02:16AM 45.2331 -11.0396 64° Northeast  Level Estimated
02:17AM 45.2939 -10.8596 64° Northeast  Level Estimated
02:18AM 45.3545 -10.6792 64° Northeast  Level Estimated
02:19AM 45.4148 -10.4985 65° Northeast  Level Estimated
02:20AM 45.4748 -10.3173 65° Northeast  Level Estimated
02:21AM 45.5346 -10.1358 65° Northeast  Level Estimated
02:22AM 45.5940 -9.9539 65° Northeast  Level Estimated
02:22AM 42.6310 -9.5530 65° Northeast 466 536 38,000  Level FlightAware
02:22AM 42.6600 -9.4470 70° East 463 533 38,000  Level FlightAware
02:23AM 42.6920 -9.3250 70° East 464 534 38,000  Level FlightAware
02:24AM 42.7230 -9.2070 70° East 465 535 38,000  Level FlightAware
02:24AM 42.7530 -9.0940 70° East 466 536 38,000  Level FlightAware
02:25AM 42.7870 -8.9640 70° East 467 537 38,000  Level FlightAware
02:26AM 42.8090 -8.8820 70° East 467 537 38,000  Level FlightAware
02:26AM 42.8440 -8.7460 71° East 468 539 38,000  Level FlightAware
02:27AM 42.8770 -8.6180 71° East 470 541 38,000  Level FlightAware
02:28AM 42.9050 -8.5170 69° East 471 542 38,000  Level FlightAware
02:28AM 42.9540 -8.4000 60° Northeast 468 539 38,000  Level FlightAware
02:29AM 43.0380 -8.2670 49° Northeast 463 533 38,000  Level FlightAware
02:30AM 43.0910 -8.1890 47° Northeast 463 533 38,000  Level FlightAware
02:31AM 43.1500 -8.1050 46° Northeast 462 532 38,000  Level FlightAware
02:31AM 43.2090 -8.0190 47° Northeast 464 534 38,000  Level FlightAware
02:32AM 43.2850 -7.9090 46° Northeast 466 536 38,000  Level FlightAware
02:33AM 43.3370 -7.8330 47° Northeast 466 536 38,000  Level FlightAware
02:34AM 43.4120 -7.7240 47° Northeast 466 536 38,000  Level FlightAware
02:34AM 43.4780 -7.6260 47° Northeast 465 535 38,000  Level FlightAware
02:35AM 43.5330 -7.5470 46° Northeast 465 535 38,000  Level FlightAware
02:36AM 43.6020 -7.4440 47° Northeast 466 536 38,000  Level FlightAware
02:36AM 43.6500 -7.3730 47° Northeast 466 536 38,000  Level FlightAware
02:37AM 43.7310 -7.2530 47° Northeast 467 537 38,000  Level FlightAware
02:38AM 43.8160 -7.1270 47° Northeast 467 537 38,000  Level FlightAware
02:39AM 43.8810 -7.0300 47° Northeast 467 537 38,000  Level FlightAware
02:40AM 43.9620 -6.9070 48° Northeast 468 539 38,000  Level FlightAware
02:41AM 44.0350 -6.7960 48° Northeast 468 539 38,000  Level FlightAware
02:43AM 44.1954 -6.5493 48° Northeast  Level FlightAware Approximate
02:43AM 44.2720 -6.4360 48° Northeast 472 543 38,000  Level FlightAware
02:44AM 44.2895 -6.4036 48° Northeast  Level FlightAware Approximate
02:44AM 44.3310 -6.3460 47° Northeast 472 543 38,000  Level FlightAware
02:45AM 44.3970 -6.2440 48° Northeast 471 542 38,000  Level FlightAware
02:45AM 44.4390 -6.1790 48° Northeast 471 542 38,000  Level FlightAware
02:47AM 44.5860 -5.9510 48° Northeast 469 540 38,000  Level FlightAware
02:48AM 44.6910 -5.7850 48° Northeast 468 539 38,000  Level FlightAware
02:49AM 44.7410 -5.7080 48° Northeast 468 539 38,000  Level FlightAware
02:50AM 44.7900 -5.6310 48° Northeast 468 539 38,000  Level FlightAware
02:50AM 44.8520 -5.5350 48° Northeast 468 539 38,000  Level FlightAware
02:51AM 44.9010 -5.4580 48° Northeast 468 539 38,000  Level FlightAware
02:52AM 44.9500 -5.3800 48° Northeast 468 539 38,000  Level FlightAware
02:52AM 44.9990 -5.3030 48° Northeast 468 539 38,000  Level FlightAware
02:53AM 45.0610 -5.2060 48° Northeast 468 539 38,000  Level FlightAware
02:54AM 45.0980 -5.1480 48° Northeast 468 539 38,000  Level FlightAware
02:54AM 45.1350 -5.0900 48° Northeast 468 539 38,000  Level FlightAware
02:55AM 45.1960 -4.9930 48° Northeast 468 539 38,000  Level FlightAware
02:56AM 45.2460 -4.9150 48° Northeast 468 539 38,000  Level FlightAware
02:56AM 45.2950 -4.8380 48° Northeast 468 539 38,000  Level FlightAware
02:57AM 45.3440 -4.7600 48° Northeast 468 539 38,000  Level FlightAware
02:58AM 45.3930 -4.6820 48° Northeast 468 539 38,000  Level FlightAware
03:01AM 45.6383 -4.2688 50° Northeast  Level FlightAware Approximate
03:01AM 45.7310 -4.0830 50° Northeast 467 537 38,000  Level FlightAware
03:01AM 45.7800 -3.9990 50° Northeast 467 537 38,000  Level FlightAware
03:02AM 45.8410 -3.8960 50° Northeast 467 537 38,000  Level FlightAware
03:03AM 45.9010 -3.7970 49° Northeast 467 537 38,000  Level FlightAware
03:04AM 45.9810 -3.6580 50° Northeast 467 537 38,000  Level FlightAware
03:04AM 46.0420 -3.5520 50° Northeast 465 535 38,000  Level FlightAware
03:05AM 46.0970 -3.4580 50° Northeast 467 537 38,000  Level FlightAware
03:06AM 46.1520 -3.3630 50° Northeast 470 541 38,000  Level FlightAware
03:06AM 46.2030 -3.2740 50° Northeast 470 541 38,000  Level FlightAware
03:07AM 46.2550 -3.1840 50° Northeast 474 545 38,000  Level FlightAware
03:08AM 46.3340 -3.0460 50° Northeast 476 548 38,000  Level FlightAware
03:08AM 46.3840 -2.9570 51° Northeast 476 548 38,000  Level FlightAware
03:09AM 46.4490 -2.8420 51° Northeast 476 548 38,000  Level FlightAware
03:10AM 46.5120 -2.7320 50° Northeast 474 545 38,000  Level FlightAware
03:11AM 46.5740 -2.6210 51° Northeast 474 545 38,000  Level FlightAware
03:11AM 46.6230 -2.5340 51° Northeast 474 545 38,000  Level FlightAware
03:12AM 46.6870 -2.4200 51° Northeast 474 545 38,000  Level FlightAware
03:13AM 46.7410 -2.3220 51° Northeast 474 545 38,000 -360 Level FlightAware
03:13AM 46.8030 -2.2100 51° Northeast 472 543 37,500 -900 Descending FlightAware
03:14AM 46.8570 -2.1140 51° Northeast 466 536 36,800 -1,020 Descending FlightAware
03:15AM 46.9090 -2.0180 52° Northeast 466 536 36,200 -600 Descending FlightAware
03:15AM 46.9720 -1.9040 51° Northeast 463 533 36,000 -180 Descending FlightAware
03:16AM 47.0270 -1.8040 51° Northeast 465 535 36,000  Level FlightAware
03:17AM 47.0860 -1.6950 51° Northeast 465 535 36,000  Level FlightAware
03:18AM 47.1380 -1.5980 52° Northeast 466 536 36,000 -180 Level FlightAware
03:18AM 47.1930 -1.4980 51° Northeast 465 535 35,800 -1,320 Descending FlightAware
03:19AM 47.2450 -1.3990 52° Northeast 463 533 34,300 -2,580 Descending FlightAware
03:20AM 47.3050 -1.2880 51° Northeast 462 532 32,200 -2,580 Descending FlightAware
03:20AM 47.3570 -1.1910 52° Northeast 455 524 30,700 -2,160 Descending FlightAware
03:21AM 47.4140 -1.0850 52° Northeast 445 512 29,200 -1,980 Descending FlightAware
03:22AM 47.4660 -0.9870 52° Northeast 436 502 27,900 -1,980 Descending FlightAware
03:22AM 47.5140 -0.8960 52° Northeast 427 491 26,600 -1,380 Descending FlightAware
03:23AM 47.5600 -0.7760 60° Northeast 448 516 26,000 -480 Descending FlightAware
03:24AM 47.5940 -0.6630 66° East 457 526 26,000  Level FlightAware
03:25AM 47.6330 -0.5370 65° Northeast 454 522 26,000  Level FlightAware
03:25AM 47.6660 -0.4260 66° East 453 521 26,000  Level FlightAware
03:26AM 47.7050 -0.2960 66° East 451 519 26,000  Level FlightAware
03:27AM 47.7380 -0.1850 66° East 452 520 26,000  Level FlightAware
03:27AM 47.7730 -0.0680 66° East 453 521 26,000  Level FlightAware
03:28AM 47.8080 0.0530 67° East 450 518 26,000 -300 Level FlightAware
03:29AM 47.8420 0.1690 66° East 450 518 25,600 -840 Descending FlightAware
03:29AM 47.8760 0.2850 66° East 445 512 24,900 -1,020 Descending FlightAware
03:30AM 47.9130 0.4100 66° East 441 507 24,200 -1,020 Descending FlightAware
03:31AM 47.9430 0.5150 67° East 440 506 23,500 -1,500 Descending FlightAware
03:32AM 47.9800 0.6440 67° East 429 494 22,100 -1,920 Descending FlightAware
03:32AM 48.0110 0.7520 67° East 419 482 20,800 -1,980 Descending FlightAware
03:33AM 48.0450 0.8720 67° East 413 475 19,300 -1,980 Descending FlightAware
03:34AM 48.0740 0.9710 66° East 408 470 18,000 -1,980 Descending FlightAware
03:34AM 48.1030 1.0750 67° East 400 460 16,700 -1,980 Descending FlightAware
03:35AM 48.1350 1.1900 67° East 393 452 15,200 -1,920 Descending FlightAware
03:36AM 48.1670 1.2850 63° Northeast 384 442 14,000 -1,440 Descending FlightAware
03:36AM 48.2150 1.3600 46° Northeast 376 433 13,300 -1,080 Descending FlightAware
03:37AM 48.2690 1.4460 47° Northeast 372 428 12,500 -1,020 Descending FlightAware
03:38AM 48.3160 1.5190 46° Northeast 368 423 11,900 -900 Descending FlightAware
03:39AM 48.3700 1.6050 47° Northeast 364 419 11,300 -600 Descending FlightAware
03:39AM 48.4210 1.6850 46° Northeast 362 417 11,000 -240 Descending FlightAware
03:40AM 48.4747 1.7697 46° Northeast 364 419 11,000  Level FlightAware ADS-B
03:41AM 48.5136 1.8317 47° Northeast 364 419 11,000  Level FlightAware ADS-B
03:41AM 48.5447 1.8905 51° Northeast 365 420 11,000  Level FlightAware ADS-B
03:41AM 48.5475 1.9032 71° East 366 421 11,000  Level FlightAware ADS-B
03:41AM 48.5509 1.9340 81° East 371 427 11,000  Level FlightAware ADS-B
03:42AM 48.5526 1.9708 86° East 373 429 11,000  Level FlightAware ADS-B
03:42AM 48.5565 2.0456 85° East 372 428 11,000  Level FlightAware ADS-B
03:43AM 48.5614 2.1209 84° East 371 427 11,000  Level FlightAware ADS-B
03:43AM 48.5655 2.1833 84° East 371 427 11,000  Level FlightAware ADS-B
03:44AM 48.5720 2.2834 84° East 344 396 11,000  Level FlightAware ADS-B
03:44AM 48.5765 2.3523 84° East 316 364 11,000  Level FlightAware ADS-B
03:45AM 48.5784 2.3814 84° East 305 351 11,000 -660 Level FlightAware ADS-B
03:45AM 48.5827 2.4100 77° East 298 343 10,700 -2,640 Descending FlightAware ADS-B
03:45AM 48.5959 2.4585 68° East 296 341 9,600 -2,580 Descending FlightAware ADS-B
03:45AM 48.6044 2.4884 67° East 288 331 9,000 -2,520 Descending FlightAware ADS-B
03:46AM 48.6124 2.5162 66° East 287 330 8,300 -2,520 Descending FlightAware ADS-B
03:46AM 48.6201 2.5441 67° East 285 328 7,700 -2,340 Descending FlightAware ADS-B
03:46AM 48.6284 2.5741 67° East 279 321 7,100 -2,340 Descending FlightAware ADS-B
03:46AM 48.6380 2.6087 67° East 277 319 6,300 -2,640 Descending FlightAware ADS-B
03:47AM 48.6465 2.6390 67° East 277 319 5,500 -2,640 Descending FlightAware ADS-B
03:47AM 48.6542 2.6669 67° East 274 315 4,900 -2,160 Descending FlightAware ADS-B
03:47AM 48.6618 2.6941 67° East 274 315 4,400 -1,200 Descending FlightAware ADS-B
03:47AM 48.6684 2.7171 66° East 268 308 4,300 -600 Descending FlightAware ADS-B
03:48AM 48.6720 2.7292 66° East 265 305 4,200 -600 Descending FlightAware ADS-B
03:48AM 48.6746 2.7364 61° Northeast 263 303 4,200 -480 Level FlightAware ADS-B
03:48AM 48.6793 2.7451 51° Northeast 259 298 4,100 -480 Descending FlightAware ADS-B
03:48AM 48.6857 2.7529 39° Northeast 251 289 4,100 -780 Level FlightAware ADS-B
03:48AM 48.6899 2.7561 27° Northeast 246 283 4,000 -600 Descending FlightAware ADS-B
03:48AM 48.6965 2.7590 16° North 240 276 4,000 -480 Level FlightAware ADS-B
03:48AM 48.6999 2.7597 North 237 273 3,900 -1,020 Descending FlightAware ADS-B
03:48AM 48.7090 2.7594 359° North 231 266 3,800 -120 Descending FlightAware ADS-B
03:49AM 48.7202 2.7576 354° North 229 264 3,800  Level FlightAware ADS-B
03:49AM 48.7637 2.7254 334° Northwest 204 235 3,800  Level FlightAware ADS-B
03:50AM 48.7713 2.7062 301° West 189 217 3,800  Level FlightAware ADS-B
03:50AM 48.7747 2.6968 299° West 182 209 3,800  Level FlightAware ADS-B
03:50AM 48.7755 2.6929 287° West 180 207 3,800  Level FlightAware ADS-B
03:50AM 48.7760 2.6878 279° West 179 206 3,800  Level FlightAware ADS-B
03:50AM 48.7762 2.6840 274° West 177 204 3,800  Level FlightAware ADS-B
03:50AM 48.7761 2.6803 268° West 176 203 3,800  Level FlightAware ADS-B
03:50AM 48.7759 2.6761 266° West 177 204 3,800  Level FlightAware ADS-B
03:50AM 48.7755 2.6707 264° West 180 207 3,800  Level FlightAware ADS-B
03:50AM 48.7749 2.6660 259° West 181 208 3,800 -900 Level FlightAware ADS-B
03:50AM 48.7743 2.6616 258° West 180 207 3,700 -1,200 Descending FlightAware ADS-B
03:50AM 48.7721 2.6472 257° West 179 206 3,500 -1,080 Descending FlightAware ADS-B
03:51AM 48.7688 2.6286 255° West 180 207 3,200 -1,020 Descending FlightAware ADS-B
03:51AM 48.7669 2.6180 255° West 180 207 3,100 -1,020 Descending FlightAware ADS-B
03:51AM 48.7636 2.5999 255° West 180 207 2,800 -1,080 Descending FlightAware ADS-B
03:51AM 48.7606 2.5830 255° West 179 206 2,600 -840 Descending FlightAware ADS-B
03:51AM 48.7586 2.5719 255° West 179 206 2,500 -1,020 Descending FlightAware ADS-B
03:52AM 48.7553 2.5540 254° West 177 204 2,200 -1,200 Descending FlightAware ADS-B
03:52AM 48.7532 2.5425 255° West 174 200 2,000 -960 Descending FlightAware ADS-B
03:52AM 48.7498 2.5243 254° West 167 192 1,800 -780 Descending FlightAware ADS-B
03:52AM 48.7468 2.5081 254° West 158 182 1,600 -840 Descending FlightAware ADS-B
03:53AM 48.7442 2.4939 255° West 149 171 1,400 -840 Descending FlightAware ADS-B
03:53AM 48.7416 2.4791 255° West 143 165 1,200 -780 Descending FlightAware ADS-B
03:53AM 48.7390 2.4650 254° West 138 159 1,000 -780 Descending FlightAware ADS-B
03:53AM 48.7377 2.4579 254° West 140 161 900 -960 Descending FlightAware ADS-B
03:53AM 48.7365 2.4520 253° West 140 161 800 -660 Descending FlightAware ADS-B
03:54AM 48.7320 2.4250 256° West 140 161 500 -720 Descending FlightAware
03:54AM 48.7270 2.3970 255° West 136 157 100 -840 Descending FlightAware
03:55AM 48.7230 2.3760 254° West 136 157 -240 Descending FlightAware
03:57AM 48.7167 2.3667 63° Northeast  Level FlightAware Approximate
03:58AM 48.7253 2.3594 63° Northeast  Level Estimated
03:59AM 48.7253 2.3594 63° Northeast  Level Estimated
04:00AM 48.7253 2.3594 63° Northeast  Level Estimated
04:01AM 48.7253 2.3594 63° Northeast  Level Estimated
04:02AM 48.7253 2.3594 63° Northeast  Level Estimated
04:03AM 48.7253 2.3594 63° Northeast  Level Estimated
04:04AM 48.7253 2.3594 63° Northeast  Level Estimated
04:05AM 48.7253 2.3594 63° Northeast  Level Estimated
04:06AM 48.7253 2.3594 63° Northeast  Level Estimated
04:07AM 48.7253 2.3594 63° Northeast  Level Estimated
04:08AM 48.7253 2.3594 63° Northeast  Level Estimated
04:09AM 48.7253 2.3594 63° Northeast  Level Estimated
04:10AM 48.7253 2.3594 63° Northeast  Level Estimated
04:11AM 48.7253 2.3594 63° Northeast  Level Estimated
04:12AM 48.7253 2.3594 63° Northeast  Level Estimated
04:13AM 48.7253 2.3594 63° Northeast  Level Estimated
04:14AM 48.7253 2.3594 63° Northeast  Level Estimated
04:15AM 48.7253 2.3594 63° Northeast  Level Estimated
04:16AM 48.7253 2.3594 63° Northeast  Level Estimated
04:17AM 48.7253 2.3594 63° Northeast  Level Estimated